Time;durP1;ratioP1;P1;durP2;ratioP2;P2;SDS_P1;SDS_P2;PMS_P1;PMS_P2;Temp;Humidity;BMP_temperature;BMP_pressure;BME280_temperature;BME280_humidity;BME280_pressure;Samples;Min_cycle;Max_cycle;Signal;HPM_P1;HPM_P2
2023/12/24 00:04:18;;;;;;;;;;;;;;;-0.35;100.00;97868.65;435382;1251;127548;-63
2023/12/24 00:14:22;;;;;;;;;;;;;;;-0.30;100.00;97884.60;435029;1250;127501;-64
2023/12/24 00:24:27;;;;;;;;;;;;;;;-0.25;100.00;97895.41;435966;1253;127336;-64
2023/12/24 00:34:31;;;;;;;;;;;;;;;-0.28;100.00;97909.77;434618;1254;127121;-64
2023/12/24 00:44:37;;;;;;;;;;;;;;;-0.30;100.00;97925.19;436701;1250;126049;-63
2023/12/24 00:54:42;;;;;;;;;;;;;;;-0.30;100.00;97942.36;436729;1255;125992;-64
2023/12/24 01:04:46;;;;;;;;;;;;;;;-0.28;100.00;97959.31;434917;1251;128355;-65
2023/12/24 01:14:51;;;;;;;;;;;;;;;-0.25;100.00;97972.40;435015;1254;127125;-64
2023/12/24 01:24:55;;;;;;;;;;;;;;;-0.20;100.00;97979.09;435189;1251;125634;-64
2023/12/24 01:34:59;;;;;;;;;;;;;;;-0.23;100.00;97977.98;434985;1252;126973;-64
2023/12/24 01:45:05;;;;;;;;;;;;;;;-0.38;100.00;97985.05;435352;1254;125905;-64
2023/12/24 01:55:10;;;;;;;;;;;;;;;-0.62;100.00;97991.74;436512;1250;126088;-66
2023/12/24 02:05:14;;;;;;;;;;;;;;;-0.68;100.00;98003.04;435187;1256;126579;-64
2023/12/24 02:15:19;;;;;;;;;;;;;;;-0.69;100.00;98014.58;435016;1251;126654;-65
2023/12/24 02:25:25;;;;;;;;;;;;;;;-0.57;100.00;98028.85;435229;1255;126806;-65
2023/12/24 02:35:31;;;;;;;;;;;;;;;-0.51;100.00;98031.67;435031;1255;127031;-64
2023/12/24 02:45:36;;;;;;;;;;;;;;;-0.53;100.00;98042.10;434850;1251;125830;-64
2023/12/24 02:55:40;;;;;;;;;;;;;;;-0.71;100.00;98049.20;435189;1254;126493;-65
2023/12/24 03:05:45;;;;;;;;;;;;;;;-0.78;100.00;98052.94;435046;1250;126466;-65
2023/12/24 03:15:49;;;;;;;;;;;;;;;-0.78;100.00;98048.80;435391;1250;126955;-65
2023/12/24 03:25:54;;;;;;;;;;;;;;;-0.85;100.00;98049.30;435150;1254;127187;-63
2023/12/24 03:35:59;;;;;;;;;;;;;;;-0.80;100.00;98052.51;438636;1251;126069;-63
2023/12/24 03:46:03;;;;;;;;;;;;;;;-0.66;100.00;98053.64;436773;1251;126825;-64
2023/12/24 03:56:10;;;;;;;;;;;;;;;-0.56;100.00;98070.25;435104;1254;126943;-64
2023/12/24 04:06:16;;;;;;;;;;;;;;;-0.49;100.00;98081.09;435439;1256;125909;-64
2023/12/24 04:16:20;;;;;;;;;;;;;;;-0.51;100.00;98075.17;436402;1255;126114;-64
2023/12/24 04:26:25;;;;;;;;;;;;;;;-0.56;100.00;98067.66;435361;1251;126922;-64
2023/12/24 04:36:29;;;;;;;;;;;;;;;-0.55;100.00;98069.16;435102;1254;126039;-64
2023/12/24 04:46:40;;;;;;;;;;;;;;;-0.48;100.00;98070.94;434981;1254;126151;-63
2023/12/24 04:56:44;;;;;;;;;;;;;;;-0.37;100.00;98082.83;435517;1254;129260;-64
2023/12/24 05:06:49;;;;;;;;;;;;;;;-0.30;100.00;98093.85;435025;1255;126061;-64
2023/12/24 05:16:53;;;;;;;;;;;;;;;-0.23;100.00;98104.77;435027;1256;127476;-65
2023/12/24 05:26:58;;;;;;;;;;;;;;;-0.18;100.00;98102.83;435408;1256;126573;-65
2023/12/24 05:37:02;;;;;;;;;;;;;;;-0.17;100.00;98108.78;436042;1254;126305;-65
2023/12/24 05:47:07;;;;;;;;;;;;;;;-0.11;100.00;98111.80;435123;1257;126516;-63
2023/12/24 05:57:12;;;;;;;;;;;;;;;-0.04;100.00;98116.30;436413;1251;126115;-64
2023/12/24 06:07:16;;;;;;;;;;;;;;;0.03;100.00;98122.20;437229;1256;125956;-64
2023/12/24 06:17:21;;;;;;;;;;;;;;;0.07;100.00;98126.83;435152;1256;126990;-64
2023/12/24 06:27:25;;;;;;;;;;;;;;;0.02;100.00;98144.26;435000;1254;125836;-64
2023/12/24 06:37:29;;;;;;;;;;;;;;;-0.06;100.00;98148.04;435660;1251;125748;-64
2023/12/24 06:47:34;;;;;;;;;;;;;;;-0.07;100.00;98143.79;435201;1251;126998;-65
2023/12/24 06:57:38;;;;;;;;;;;;;;;-0.12;100.00;98141.94;435076;1251;127225;-64
2023/12/24 07:07:42;;;;;;;;;;;;;;;-0.10;100.00;98149.93;435351;1254;126676;-65
2023/12/24 07:17:47;;;;;;;;;;;;;;;-0.12;100.00;98157.26;435294;1254;126291;-65
2023/12/24 07:27:52;;;;;;;;;;;;;;;-0.11;100.00;98172.38;435269;1251;127578;-63
2023/12/24 07:37:56;;;;;;;;;;;;;;;-0.13;100.00;98180.52;435440;1254;125779;-64
2023/12/24 07:48:01;;;;;;;;;;;;;;;-0.15;100.00;98179.91;435708;1252;126802;-65
2023/12/24 07:58:05;;;;;;;;;;;;;;;-0.16;100.00;98181.32;435099;1254;126758;-65
2023/12/24 08:08:10;;;;;;;;;;;;;;;-0.20;100.00;98173.60;435108;1251;125990;-66
2023/12/24 08:18:14;;;;;;;;;;;;;;;-0.25;100.00;98180.69;435475;1254;127176;-60
2023/12/24 08:28:20;;;;;;;;;;;;;;;-0.30;100.00;98194.98;435101;1254;126944;-59
2023/12/24 08:38:25;;;;;;;;;;;;;;;-0.35;100.00;98196.94;435080;1254;126298;-58
2023/12/24 08:48:29;;;;;;;;;;;;;;;-0.39;100.00;98195.19;435772;1254;126775;-58
2023/12/24 08:58:34;;;;;;;;;;;;;;;-0.35;100.00;98198.81;435000;1254;127162;-58
2023/12/24 09:08:38;;;;;;;;;;;;;;;-0.32;100.00;98198.16;434720;1254;125616;-57
2023/12/24 09:18:43;;;;;;;;;;;;;;;-0.29;100.00;98195.11;435137;1254;126182;-55
2023/12/24 09:28:48;;;;;;;;;;;;;;;-0.22;100.00;98182.12;435035;1251;126203;-57
2023/12/24 09:38:52;;;;;;;;;;;;;;;-0.11;100.00;98176.67;435051;1254;126774;-58
2023/12/24 09:48:56;;;;;;;;;;;;;;;0.02;100.00;98159.73;435273;1251;125763;-58
2023/12/24 09:59:02;;;;;;;;;;;;;;;0.12;100.00;98157.40;435203;1254;125547;-56
2023/12/24 10:09:10;;;;;;;;;;;;;;;0.25;100.00;98148.41;435213;1254;126672;-58
2023/12/24 10:19:23;;;;;;;;;;;;;;;0.39;100.00;98140.02;435155;1254;125730;-58
2023/12/24 10:29:27;;;;;;;;;;;;;;;0.46;100.00;98129.06;435177;1254;128016;-58
2023/12/24 10:39:33;;;;;;;;;;;;;;;0.47;100.00;98108.16;435421;1251;126867;-57
2023/12/24 10:49:38;;;;;;;;;;;;;;;0.47;100.00;98087.38;435091;1253;125604;-58
2023/12/24 11:00:03;;;;;;;;;;;;;;;0.60;100.00;98069.85;435032;1251;125868;-58
2023/12/24 11:10:08;;;;;;;;;;;;;;;0.80;100.00;98058.91;435460;1254;126730;-57
2023/12/24 11:20:38;;;;;;;;;;;;;;;0.95;100.00;98050.79;435383;1250;126258;-56
2023/12/24 11:31:00;;;;;;;;;;;;;;;1.02;100.00;98035.45;435265;1250;126013;-57
2023/12/24 11:41:07;;;;;;;;;;;;;;;1.03;100.00;98017.15;436825;1254;126085;-58
2023/12/24 11:51:14;;;;;;;;;;;;;;;1.07;100.00;98006.44;435683;1250;128500;-57
2023/12/24 12:01:24;;;;;;;;;;;;;;;1.07;100.00;97982.30;435204;1254;125590;-56
2023/12/24 12:11:28;;;;;;;;;;;;;;;1.04;100.00;97965.90;435987;1251;125812;-59
2023/12/24 12:21:33;;;;;;;;;;;;;;;0.88;100.00;97951.58;435982;1251;126308;-59
2023/12/24 12:31:37;;;;;;;;;;;;;;;0.73;100.00;97925.08;435193;1254;126629;-59
2023/12/24 12:41:42;;;;;;;;;;;;;;;0.63;100.00;97913.67;435060;1251;125817;-59
2023/12/24 12:51:47;;;;;;;;;;;;;;;0.50;100.00;97900.55;434857;1253;125841;-59
2023/12/24 13:01:56;;;;;;;;;;;;;;;0.44;100.00;97882.45;435746;1254;125899;-60
2023/12/24 13:12:07;;;;;;;;;;;;;;;0.36;100.00;97877.67;435347;1250;126657;-61
2023/12/24 13:22:12;;;;;;;;;;;;;;;0.30;100.00;97887.26;435480;1254;126705;-60
2023/12/24 13:32:17;;;;;;;;;;;;;;;0.30;100.00;97864.71;436119;1251;126684;-61
2023/12/24 13:42:21;;;;;;;;;;;;;;;0.29;100.00;97857.20;435560;1251;126020;-61
2023/12/24 13:52:25;;;;;;;;;;;;;;;0.25;100.00;97851.52;435373;1253;126290;-59
2023/12/24 14:02:30;;;;;;;;;;;;;;;0.23;100.00;97835.45;435259;1251;126316;-58
2023/12/24 14:12:38;;;;;;;;;;;;;;;0.22;100.00;97818.98;435366;1254;125499;-59
2023/12/24 14:22:42;;;;;;;;;;;;;;;0.27;100.00;97821.83;435221;1251;126387;-60
2023/12/24 14:32:46;;;;;;;;;;;;;;;0.32;100.00;97794.55;435160;1251;126368;-59
2023/12/24 14:42:51;;;;;;;;;;;;;;;0.38;100.00;97787.55;435111;1254;125658;-59
2023/12/24 14:52:56;;;;;;;;;;;;;;;0.45;100.00;97782.55;435360;1254;126754;-59
2023/12/24 15:03:00;;;;;;;;;;;;;;;0.52;100.00;97780.80;435135;1254;125819;-59
2023/12/24 15:13:05;;;;;;;;;;;;;;;0.61;100.00;97770.50;435327;1250;125521;-59
2023/12/24 15:23:10;;;;;;;;;;;;;;;0.71;100.00;97759.84;434986;1253;125586;-60
2023/12/24 15:33:15;;;;;;;;;;;;;;;0.82;100.00;97741.84;436925;1254;127244;-60
2023/12/24 15:43:19;;;;;;;;;;;;;;;0.96;100.00;97742.50;435154;1250;126786;-61
2023/12/24 15:53:24;;;;;;;;;;;;;;;1.13;100.00;97737.78;436391;1250;126779;-60
2023/12/24 16:03:28;;;;;;;;;;;;;;;1.41;100.00;97732.11;434817;1251;125829;-60
2023/12/24 16:13:33;;;;;;;;;;;;;;;1.72;100.00;97697.05;435092;1254;125758;-60
2023/12/24 16:23:37;;;;;;;;;;;;;;;2.00;100.00;97690.76;434933;1251;126610;-59
2023/12/24 16:33:41;;;;;;;;;;;;;;;2.22;100.00;97678.55;435144;1251;126021;-60
2023/12/24 16:43:46;;;;;;;;;;;;;;;2.42;100.00;97664.59;435506;1251;125491;-60
2023/12/24 16:53:50;;;;;;;;;;;;;;;2.57;100.00;97669.89;435232;1253;126394;-59
2023/12/24 17:03:55;;;;;;;;;;;;;;;2.76;100.00;97675.80;434933;1250;126397;-60
2023/12/24 17:13:59;;;;;;;;;;;;;;;2.92;100.00;97660.47;435028;1254;125781;-59
2023/12/24 17:24:03;;;;;;;;;;;;;;;3.07;100.00;97639.16;435120;1254;126362;-59
2023/12/24 17:34:08;;;;;;;;;;;;;;;3.20;100.00;97628.63;434945;1250;125667;-62
2023/12/24 17:44:12;;;;;;;;;;;;;;;3.35;100.00;97619.16;434761;1254;127413;-61
2023/12/24 17:54:17;;;;;;;;;;;;;;;3.49;100.00;97608.54;435461;1251;126420;-61
2023/12/24 18:04:21;;;;;;;;;;;;;;;3.68;100.00;97611.48;434893;1254;126577;-61
2023/12/24 18:14:25;;;;;;;;;;;;;;;3.84;100.00;97616.83;434752;1254;126657;-63
2023/12/24 18:24:30;;;;;;;;;;;;;;;3.99;100.00;97614.91;435094;1254;126492;-61
2023/12/24 18:34:34;;;;;;;;;;;;;;;4.16;100.00;97596.95;434808;1251;125937;-61
2023/12/24 18:44:41;;;;;;;;;;;;;;;4.32;100.00;97588.92;434731;1250;126266;-63
2023/12/24 18:54:46;;;;;;;;;;;;;;;4.45;100.00;97563.55;436279;1251;126647;-62
2023/12/24 19:04:51;;;;;;;;;;;;;;;4.57;100.00;97547.44;434775;1251;126380;-62
2023/12/24 19:14:56;;;;;;;;;;;;;;;4.69;100.00;97535.23;435104;1251;127044;-62
2023/12/24 19:25:01;;;;;;;;;;;;;;;4.80;100.00;97529.36;435812;1253;125784;-62
2023/12/24 19:35:05;;;;;;;;;;;;;;;4.94;100.00;97528.20;435096;1251;125799;-63
2023/12/24 19:45:10;;;;;;;;;;;;;;;5.06;100.00;97521.92;435478;1253;125815;-62
2023/12/24 19:55:14;;;;;;;;;;;;;;;5.18;100.00;97498.99;435977;1251;126040;-62
2023/12/24 20:05:19;;;;;;;;;;;;;;;5.29;100.00;97490.20;435024;1250;126392;-62
2023/12/24 20:15:23;;;;;;;;;;;;;;;5.40;100.00;97464.41;435737;1251;125775;-62
2023/12/24 20:25:28;;;;;;;;;;;;;;;5.49;100.00;97439.80;435486;1251;126946;-61
2023/12/24 20:35:32;;;;;;;;;;;;;;;5.58;100.00;97444.25;434987;1254;126678;-61
2023/12/24 20:45:36;;;;;;;;;;;;;;;5.68;100.00;97427.18;437067;1254;125823;-62
2023/12/24 20:55:41;;;;;;;;;;;;;;;5.77;100.00;97411.08;435956;1250;125843;-63
2023/12/24 21:05:47;;;;;;;;;;;;;;;5.82;100.00;97412.20;434923;1255;126035;-62
2023/12/24 21:15:53;;;;;;;;;;;;;;;5.86;100.00;97421.06;436055;1251;125609;-62
2023/12/24 21:25:58;;;;;;;;;;;;;;;5.87;100.00;97408.65;435017;1254;125793;-62
2023/12/24 21:36:02;;;;;;;;;;;;;;;5.87;100.00;97396.86;435142;1251;126313;-62
2023/12/24 21:46:06;;;;;;;;;;;;;;;5.87;100.00;97381.90;435039;1251;126339;-62
2023/12/24 21:56:11;;;;;;;;;;;;;;;5.90;100.00;97357.94;435266;1254;126398;-63
2023/12/24 22:06:15;;;;;;;;;;;;;;;5.93;100.00;97341.70;435430;1250;125812;-61
2023/12/24 22:16:20;;;;;;;;;;;;;;;5.99;100.00;97341.06;435125;1256;125860;-61
2023/12/24 22:26:25;;;;;;;;;;;;;;;6.07;100.00;97340.47;435120;1251;125489;-62
2023/12/24 22:36:29;;;;;;;;;;;;;;;6.15;100.00;97329.52;435286;1255;125911;-63
2023/12/24 22:46:33;;;;;;;;;;;;;;;6.26;100.00;97328.67;435272;1251;127622;-61
2023/12/24 22:56:37;;;;;;;;;;;;;;;6.37;100.00;97314.55;435573;1253;126362;-62
2023/12/24 23:06:42;;;;;;;;;;;;;;;6.47;100.00;97306.63;435642;1255;127083;-62
2023/12/24 23:16:46;;;;;;;;;;;;;;;6.58;100.00;97311.94;435102;1251;126607;-63
2023/12/24 23:26:50;;;;;;;;;;;;;;;6.66;100.00;97314.23;435155;1251;125839;-61
2023/12/24 23:36:55;;;;;;;;;;;;;;;6.75;100.00;97294.53;435643;1255;126551;-61
2023/12/24 23:46:59;;;;;;;;;;;;;;;6.84;100.00;97294.50;434961;1255;126873;-61
2023/12/24 23:57:04;;;;;;;;;;;;;;;6.94;100.00;97293.28;434830;1255;127794;-62
